createdAt,value
2022-12-05T06:00:47.017Z,100230.19
2022-12-05T06:03:14.002Z,100224.03
2022-12-05T06:05:40.666Z,100230.19
2022-12-05T06:08:07.906Z,100236.28
2022-12-05T06:10:34.479Z,100240.66
2022-12-05T06:13:01.711Z,100239.78
2022-12-05T06:15:28.229Z,100236.31
2022-12-05T06:17:56.746Z,100234.53
2022-12-05T06:20:23.260Z,100237.16
2022-12-05T06:22:50.377Z,100239.78
2022-12-05T06:25:17.169Z,100248.53
2022-12-05T06:27:44.041Z,100238.91
2022-12-05T06:30:11.314Z,100240.66
2022-12-05T06:32:37.893Z,100248.53
2022-12-05T06:35:15.415Z,100242.44
2022-12-05T06:37:43.539Z,100245.03
2022-12-05T06:40:12.469Z,100241.56
2022-12-05T06:42:39.327Z,100249.41
2022-12-05T06:45:06.867Z,100255.53
2022-12-05T06:47:33.674Z,100246.78
2022-12-05T06:50:00.926Z,100258.16
2022-12-05T06:52:27.474Z,100257.28
2022-12-05T06:54:54.821Z,100250.28
2022-12-05T06:57:21.427Z,100248.53
2022-12-05T06:59:48.531Z,100261.69
2022-12-05T07:02:15.081Z,100259.03
2022-12-05T07:04:42.008Z,100263.44
2022-12-05T07:07:08.635Z,100259.06
2022-12-05T07:09:51.535Z,100256.41
2022-12-05T07:12:19.420Z,100263.44
2022-12-05T07:14:48.971Z,100263.44
2022-12-05T07:17:17.267Z,100260.81
2022-12-05T07:19:44.482Z,100266.06
2022-12-05T07:22:15.674Z,100264.31
2022-12-05T07:24:44.578Z,100262.56
2022-12-05T07:27:11.671Z,100273.06
2022-12-05T07:29:38.789Z,100266.06
2022-12-05T07:32:05.696Z,100272.19
2022-12-05T07:34:32.931Z,100271.34
2022-12-05T07:37:00.407Z,100268.72
2022-12-05T07:39:27.745Z,100266.97
2022-12-05T07:41:54.301Z,100272.19
2022-12-05T07:44:21.561Z,100273.06
2022-12-05T07:46:48.120Z,100268.69
2022-12-05T07:49:15.886Z,100272.22
2022-12-05T07:51:43.046Z,100272.22
2022-12-05T07:54:09.634Z,100276.56
2022-12-05T07:56:36.782Z,100276.59
2022-12-05T07:59:03.522Z,100283.59
2022-12-05T08:01:30.718Z,100278.34
2022-12-05T08:03:59.233Z,100281.84
2022-12-05T08:06:29.180Z,100276.59
2022-12-05T08:08:56.655Z,100283.59
2022-12-05T08:11:34.856Z,100288.84
2022-12-05T08:14:03.124Z,100281.84
2022-12-05T08:16:32.250Z,100288.84
2022-12-05T08:19:01.742Z,100283.59
2022-12-05T08:21:29.138Z,100283.59
2022-12-05T08:23:56.040Z,100287.97
2022-12-05T08:26:26.583Z,100295.00
2022-12-05T08:28:55.363Z,100294.09
2022-12-05T08:31:24.615Z,100299.34
2022-12-05T08:33:57.295Z,100295.88
2022-12-05T08:36:27.181Z,100299.38
2022-12-05T08:39:04.674Z,100300.25
2022-12-05T08:41:31.702Z,100296.72
2022-12-05T08:44:03.476Z,100304.59
2022-12-05T08:46:34.752Z,100313.38
2022-12-05T08:49:05.912Z,100315.09
2022-12-05T08:51:32.827Z,100309.00
2022-12-05T08:54:03.347Z,100304.59
2022-12-05T08:56:29.948Z,100305.47
2022-12-05T08:59:04.483Z,100304.59
2022-12-05T09:01:34.352Z,100308.97
2022-12-05T09:04:02.756Z,100309.84
2022-12-05T09:06:29.762Z,100306.38
2022-12-05T09:09:02.791Z,100315.09
2022-12-05T09:11:31.739Z,100320.34
2022-12-05T09:14:00.314Z,100311.63
2022-12-05T09:16:36.498Z,100313.38
2022-12-05T09:19:11.626Z,100314.25
2022-12-05T09:21:38.153Z,100319.50
2022-12-05T09:24:05.426Z,100316.88
2022-12-05T09:26:32.047Z,100321.25
2022-12-05T09:28:58.910Z,100323.00
2022-12-05T09:31:30.762Z,100320.34
2022-12-05T09:33:57.626Z,100320.38
2022-12-05T09:36:27.859Z,100323.88
2022-12-05T09:38:55.583Z,100325.59
2022-12-05T09:42:00.072Z,100326.50
2022-12-05T09:44:52.773Z,100324.72
2022-12-05T09:47:40.259Z,100328.22
2022-12-05T09:50:22.115Z,100330.84
2022-12-05T09:53:20.658Z,100323.84
2022-12-05T09:55:50.487Z,100323.84
2022-12-05T09:58:25.920Z,100324.75
2022-12-05T10:01:00.926Z,100327.34
2022-12-05T10:03:41.191Z,100322.97
2022-12-05T10:06:23.870Z,100325.63
2022-12-05T10:09:24.825Z,100324.75
2022-12-05T10:11:59.991Z,100323.84
2022-12-05T10:14:35.620Z,100322.13
2022-12-05T10:17:18.692Z,100323.00
2022-12-05T10:19:47.622Z,100320.34
2022-12-05T10:22:20.908Z,100322.13
2022-12-05T10:25:00.574Z,100324.72
2022-12-05T10:27:40.017Z,100318.63
2022-12-05T10:30:18.044Z,100321.22
2022-12-05T10:33:06.396Z,100317.75
2022-12-05T10:35:39.057Z,100320.34
2022-12-05T10:38:12.298Z,100321.25
2022-12-05T10:40:43.012Z,100321.22
2022-12-05T10:43:13.423Z,100312.47
2022-12-05T10:45:46.106Z,100310.72
2022-12-05T10:48:15.912Z,100308.09
2022-12-05T10:50:44.688Z,100313.34
2022-12-05T10:53:19.152Z,100311.59
2022-12-05T10:56:21.268Z,100310.75
2022-12-05T10:58:35.721Z,100311.59
2022-12-05T11:01:10.633Z,100312.47
2022-12-05T11:03:43.203Z,100304.63
2022-12-05T11:06:27.484Z,100299.38
2022-12-05T11:09:14.300Z,100307.22
2022-12-05T11:11:41.589Z,100308.13
2022-12-05T11:14:23.822Z,100302.00
2022-12-05T11:16:56.962Z,100298.47
2022-12-05T11:19:30.392Z,100305.47
2022-12-05T11:21:57.727Z,100296.75
2022-12-05T11:24:29.029Z,100306.38
2022-12-05T11:26:59.138Z,100297.63
2022-12-05T11:29:37.043Z,100298.50
2022-12-05T11:32:06.405Z,100298.50
2022-12-05T11:34:44.090Z,100299.38
2022-12-05T11:37:22.849Z,100298.50
2022-12-05T11:39:49.383Z,100295.84
2022-12-05T11:42:45.851Z,100294.97
2022-12-05T11:45:41.485Z,100301.09
2022-12-05T11:48:45.275Z,100288.00
2022-12-05T11:51:21.883Z,100294.13
2022-12-05T11:54:00.646Z,100289.75
2022-12-05T11:57:09.276Z,100290.59
2022-12-05T11:59:54.171Z,100284.50
2022-12-05T12:02:41.971Z,100284.47
2022-12-05T12:05:33.353Z,100287.13
2022-12-05T12:08:07.510Z,100283.59
2022-12-05T12:11:02.770Z,100276.63
2022-12-05T12:13:59.770Z,100287.97
2022-12-05T12:16:40.342Z,100287.97
2022-12-05T12:19:30.212Z,100285.34
2022-12-05T12:22:29.624Z,100284.50
2022-12-05T12:25:11.641Z,100283.59
2022-12-05T12:28:05.618Z,100283.59
2022-12-05T12:30:47.869Z,100283.63
2022-12-05T12:33:28.286Z,100281.00
2022-12-05T12:36:04.356Z,100281.00
2022-12-05T12:38:39.121Z,100276.63
2022-12-05T12:41:46.546Z,100273.97
2022-12-05T12:44:40.460Z,100279.25
2022-12-05T12:47:19.929Z,100277.50
2022-12-05T12:50:00.378Z,100278.34
2022-12-05T12:52:46.844Z,100274.88
2022-12-05T12:55:29.151Z,100275.72
2022-12-05T12:58:28.050Z,100280.09
2022-12-05T13:01:10.323Z,100267.88
2022-12-05T13:03:51.406Z,100273.97
2022-12-05T13:06:25.147Z,100274.88
2022-12-05T13:09:02.576Z,100272.25
2022-12-05T13:11:36.825Z,100270.50
2022-12-05T13:14:04.855Z,100266.97
2022-12-05T13:16:45.579Z,100264.38
2022-12-05T13:19:38.129Z,100269.63
2022-12-05T13:22:06.624Z,100269.63
2022-12-05T13:24:33.646Z,100269.63
2022-12-05T13:27:04.977Z,100270.50
2022-12-05T13:29:35.975Z,100272.25
2022-12-05T13:32:05.288Z,100269.63
2022-12-05T13:34:35.162Z,100271.38
2022-12-05T13:37:31.467Z,100274.88
2022-12-05T13:40:17.019Z,100275.75
2022-12-05T13:42:44.261Z,100285.38
2022-12-05T13:45:17.603Z,100289.72
2022-12-05T13:48:22.147Z,100291.50
2022-12-05T13:51:07.195Z,100289.75
2022-12-05T13:53:43.720Z,100292.38
2022-12-05T13:56:13.910Z,100296.75
2022-12-05T13:58:53.702Z,100294.97
2022-12-05T14:01:27.196Z,100293.25
2022-12-05T14:03:55.533Z,100295.88
2022-12-05T14:06:51.683Z,100293.22
2022-12-05T14:09:18.168Z,100288.88
2022-12-05T14:12:13.198Z,100281.88
2022-12-05T14:15:01.827Z,100287.13
2022-12-05T14:17:45.053Z,100293.25
2022-12-05T14:20:27.095Z,100292.38
2022-12-05T14:23:12.439Z,100295.88
2022-12-05T14:26:01.154Z,100288.00
2022-12-05T14:29:08.368Z,100289.75
2022-12-05T14:32:04.241Z,100288.88
2022-12-05T14:34:34.784Z,100287.13
2022-12-05T14:37:17.199Z,100280.09
2022-12-05T14:39:54.921Z,100284.50
2022-12-05T14:42:26.933Z,100282.72
2022-12-05T14:44:57.665Z,100283.59
2022-12-05T14:47:30.468Z,100293.25
2022-12-05T14:50:33.201Z,100287.13
2022-12-05T14:53:15.012Z,100288.84
2022-12-05T14:55:46.309Z,100294.97
2022-12-05T14:58:37.387Z,100298.47
2022-12-05T15:01:28.766Z,100306.34
2022-12-05T15:04:11.415Z,100300.25
2022-12-05T15:06:48.351Z,100303.72
2022-12-05T15:09:42.587Z,100296.75
2022-12-05T15:12:20.811Z,100301.09
2022-12-05T15:14:54.868Z,100303.72
2022-12-05T15:17:26.695Z,100303.72
2022-12-05T15:20:04.473Z,100299.38
2022-12-05T15:22:36.407Z,100307.22
2022-12-05T15:25:36.227Z,100316.81
2022-12-05T15:28:19.237Z,100326.47
2022-12-05T15:30:55.900Z,100326.44
2022-12-05T15:33:24.354Z,100323.81
2022-12-05T15:35:54.942Z,100331.66
2022-12-05T15:38:29.230Z,100324.72
2022-12-05T15:40:57.110Z,100332.56
2022-12-05T15:43:28.744Z,100331.69
2022-12-05T15:46:24.613Z,100336.94
2022-12-05T15:48:52.929Z,100333.44
2022-12-05T15:51:22.571Z,100333.44
2022-12-05T15:53:51.544Z,100338.66
2022-12-05T15:56:25.022Z,100342.16
2022-12-05T15:58:59.677Z,100336.91
2022-12-05T16:01:27.177Z,100343.06
2022-12-05T16:04:12.964Z,100343.91
2022-12-05T16:06:48.485Z,100341.31
2022-12-05T16:09:21.248Z,100343.91
2022-12-05T16:11:55.530Z,100343.03
2022-12-05T16:14:57.764Z,100346.50
2022-12-05T16:17:16.948Z,100348.28
2022-12-05T16:19:43.760Z,100356.13
2022-12-05T16:22:13.894Z,100349.97
2022-12-05T16:24:45.245Z,100350.00
2022-12-05T16:27:23.769Z,100348.25
2022-12-05T16:30:10.976Z,100343.00
2022-12-05T16:32:38.479Z,100351.72
2022-12-05T16:35:34.694Z,100346.47
2022-12-05T16:38:22.587Z,100351.75
2022-12-05T16:40:54.629Z,100349.16
2022-12-05T16:43:31.695Z,100351.75
2022-12-05T16:46:08.302Z,100353.50
2022-12-05T16:48:36.117Z,100351.75
2022-12-05T16:51:21.539Z,100353.50
2022-12-05T16:53:52.918Z,100355.22
2022-12-05T16:56:24.588Z,100349.97
2022-12-05T16:58:51.510Z,100350.84
2022-12-05T17:01:22.909Z,100345.63
2022-12-05T17:03:49.570Z,100347.38
2022-12-05T17:06:18.616Z,100350.88
2022-12-05T17:08:45.159Z,100348.25
2022-12-05T17:11:18.990Z,100355.25
2022-12-05T17:13:48.326Z,100350.03
2022-12-05T17:16:20.777Z,100357.00
2022-12-05T17:18:49.153Z,100358.78
2022-12-05T17:21:25.790Z,100346.50
2022-12-05T17:23:52.448Z,100351.75
2022-12-05T17:26:21.556Z,100344.78
2022-12-05T17:28:48.796Z,100343.00
2022-12-05T17:31:24.165Z,100350.03
2022-12-05T17:33:53.183Z,100350.03
2022-12-05T17:36:23.227Z,100349.16
2022-12-05T17:38:50.002Z,100351.75
2022-12-05T17:41:27.204Z,100346.53
2022-12-05T17:43:54.646Z,100346.53
2022-12-05T17:46:23.557Z,100345.66
2022-12-05T17:48:51.319Z,100353.53
2022-12-05T17:51:19.771Z,100355.28
2022-12-05T17:53:47.330Z,100352.66
2022-12-05T17:56:14.530Z,100361.41
2022-12-05T17:58:41.624Z,100351.81
2022-12-05T18:01:15.165Z,100347.44
2022-12-05T18:03:41.879Z,100358.78
2022-12-05T18:06:09.003Z,100364.03
2022-12-05T18:08:39.520Z,100367.50
2022-12-05T18:11:07.059Z,100372.75
2022-12-05T18:13:34.175Z,100374.50
2022-12-05T18:16:02.200Z,100374.53
2022-12-05T18:18:29.458Z,100373.66
2022-12-05T18:21:10.860Z,100372.75
2022-12-05T18:23:38.682Z,100374.53
2022-12-05T18:26:08.394Z,100372.75
2022-12-05T18:28:37.216Z,100364.00
2022-12-05T18:31:15.015Z,100371.88
2022-12-05T18:33:43.927Z,100368.38
2022-12-05T18:36:17.544Z,100370.13
2022-12-05T18:38:53.380Z,100372.75
2022-12-05T18:41:23.572Z,100376.22
2022-12-05T18:43:50.503Z,100374.50
2022-12-05T18:46:18.089Z,100376.25
2022-12-05T18:48:47.659Z,100377.09
2022-12-05T18:51:18.083Z,100388.47
2022-12-05T18:53:52.113Z,100385.84
2022-12-05T18:56:31.283Z,100390.19
2022-12-05T18:59:05.049Z,100388.47
2022-12-05T19:01:34.346Z,100388.47
2022-12-05T19:04:02.890Z,100388.47
2022-12-05T19:06:32.382Z,100392.81
2022-12-05T19:09:01.449Z,100391.09
2022-12-05T19:11:29.507Z,100389.34
2022-12-05T19:14:01.317Z,100393.72
2022-12-05T19:16:31.193Z,100392.88
2022-12-05T19:19:00.297Z,100399.00
2022-12-05T19:21:30.026Z,100399.00
2022-12-05T19:23:57.458Z,100402.50
2022-12-05T19:26:25.643Z,100404.25
2022-12-05T19:28:52.296Z,100401.63
2022-12-05T19:31:22.604Z,100403.38
2022-12-05T19:33:54.775Z,100412.09
2022-12-05T19:36:28.931Z,100414.69
2022-12-05T19:38:56.681Z,100418.22
2022-12-05T19:41:29.365Z,100415.56
2022-12-05T19:44:00.126Z,100411.19
2022-12-05T19:46:29.987Z,100412.06
2022-12-05T19:48:58.249Z,100411.19
2022-12-05T19:51:25.692Z,100412.97
2022-12-05T19:53:52.401Z,100412.94
2022-12-05T19:56:21.924Z,100412.03
2022-12-05T19:58:50.162Z,100411.16
2022-12-05T20:01:21.528Z,100414.69
2022-12-05T20:03:50.900Z,100416.41
2022-12-05T20:06:19.069Z,100408.50
2022-12-05T20:08:47.525Z,100410.28
2022-12-05T20:11:18.140Z,100405.88
2022-12-05T20:13:47.052Z,100406.78
2022-12-05T20:16:18.678Z,100401.53
2022-12-05T20:18:46.000Z,100404.13
2022-12-05T20:21:19.306Z,100404.97
2022-12-05T20:23:46.465Z,100409.34
2022-12-05T20:26:24.843Z,100404.13
2022-12-05T20:28:52.138Z,100402.38
2022-12-05T20:31:22.588Z,100400.66
2022-12-05T20:33:50.579Z,100398.88
2022-12-05T20:36:23.045Z,100396.28
2022-12-05T20:38:58.551Z,100407.66
2022-12-05T20:41:26.760Z,100400.69
2022-12-05T20:43:58.591Z,100405.94
2022-12-05T20:46:26.730Z,100397.19
2022-12-05T20:48:53.628Z,100404.19
2022-12-05T20:51:29.118Z,100408.56
2022-12-05T20:53:57.229Z,100414.69
2022-12-05T20:56:28.380Z,100414.69
2022-12-05T20:58:58.017Z,100418.19
2022-12-05T21:01:26.699Z,100412.97
2022-12-05T21:03:54.079Z,100413.84
2022-12-05T21:06:29.056Z,100405.09
2022-12-05T21:08:56.978Z,100402.47
2022-12-05T21:11:25.678Z,100402.47
2022-12-05T21:13:55.046Z,100403.34
2022-12-05T21:16:23.451Z,100402.47
2022-12-05T21:18:51.074Z,100398.97
2022-12-05T21:21:24.065Z,100402.47
2022-12-05T21:23:56.836Z,100391.06
2022-12-05T21:26:25.158Z,100391.97
2022-12-05T21:28:52.768Z,100395.47
